Aérodrome :
LOGIN :

S'inscrire | Disclaimer

   EN    FR    IT 

 










Légende :    VFR   VFR Marginal   IFR   IFR Intensif   IFR Très Intensif
Visi : 
Plafond : 
>= 8 km
>= 3000ft
5 à 8 km
1000 à 3000 ft
1500m à 5 km
500 à 1000 ft
800 à 1500m
200 à 500 ft
< 800m
< 200 ft
Symboles :   Orages  Brouillard  Fortes neiges  Fortes précipitations  Vent > 20 kt
SIGMETs :   Divers  Orages  Givrage  Turbulence  Onde Orograph.  Cendres Volcan.







- Altitude de l'aérodrome : 512 ft
- Code IATA : URO
- Voir les cartes d'approche


LFOP - Rouen Vallée de Seine

DERNIER METAR :
  • 231800Z AUTO 08010KT 9999 FEW022 BKN058 OVC120 10/07 Q1011 TEMPO 2000 TSRA BKN010 BKN030CB

METARs EXPIRÉS :
  • 231730Z AUTO 08014KT 9999 FEW037 SCT046 OVC058 11/07 Q1010 TEMPO 2000 TSRA BKN010 BKN030CB
  • 231700Z AUTO 08013KT 9999 BKN031/// BKN040/// OVC049/// ///TCU 11/08 Q1010 TEMPO 2000 TSRA BKN010 BKN030CB
  • 231630Z AUTO 06010KT 9000 -RA SCT033/// BKN041/// BKN052/// ///TCU 11/08 Q1010 TEMPO 2000 TSRA BKN010 BKN030CB
  • 231600Z AUTO 09005KT 020V140 6000 -RA FEW017 SCT030 BKN037 10/08 Q1009 TEMPO 2000 TSRA BKN010 BKN030CB
  • 231530Z AUTO 06007KT 9999 SCT033/// BKN043/// OVC054/// ///TCU 12/07 Q1009 TEMPO 2000 TSRA BKN010 BKN030CB

TAF TAF LFOP
Valide du 23 à 18h jusqu'au 24 à 18h UTC


231700Z 2318/2418 07012KT 9999 BKN030
TEMPO 2318/2401 4000 SHRA BKN010 BKN030TCU
PROB40
TEMPO 2318/2321 2000 TSRA BKN010 BKN030CB
TEMPO 2403/2410 3000 BR BKN004
ATIS : +33 2 35 80 80 34
Météo : +33 2 32 86 52 80
Pas de NOTAMs connus pour ce terrain.
3 SIGMETs publiés pour la FIR Paris (LFFF) :
 
Orages noyés dans la masse
LFFF SIGMET 5 VALID 231800/232000 LFPW
LFFF PARIS FIR/UIR EMBD TS FCST WI N4800 E00500 - N4730 E00415 - N4630 E00445 - N4630 E00330 - N4815 E00330 TOP FL320 MOV N 15KT NC=
Annulation du SIGMET 3 
LFFF SIGMET 4 VALID 231730/231800 LFPW
LFFF PARIS FIR/UIR CNL SIGMET 3 231600/231800=
Orages noyés dans la masse
LFFF SIGMET 2 VALID 231540/231800 LFPW
LFFF PARIS FIR/UIR EMBD TS OBS WI N4745 E00445 - N4730 E00415 - N4630 E00445 - N4630 E00330 - N4800 E00330 TOP FL320 MOV N 15KT NC=



MET'MAP, la Météo Aéronautique d'un coup d'oeil ! - Copyright ORBIFLY Décembre 2007 - Disclaimer

ORBIFLY MET'MAP TEAM :

Programmation & Développement : Alexandra Zaïnal
Conception & Développement : Baudouin d'Aumeries
Co-Programmation & Développement : Marc-Olivier Méhu
Soutien technique & logistique : Manuel Goepfert

Contact : metmap@orbifly.com




SOURCES & CREDITS :

   NOAA